Balsa 88 — 3FBP3 — position and weather

sailwx.info

Track history (hours):
 
Tides and Currents Weather Stations Pressure Air Temp Water Temp Dewpoint Dewpoint Depression Visibility Wind Speed Wind Dir Waves Ship Positions

Balsa 88

Last reported at 2018-Jul-19 04:11 UTC. Time now 2018-Aug-14 07:01 UTC.
Position N 36°58' W 076°20'.
Warning: this ship's position is 26 days out of date.

Length 106 m; draft 7.1 m.

Type: Ship. MMSI: 373279000.

Date/timePositionNaut miles runAvg speedWind from/ knotsBaromVisibWave heightAir tempDewpointWater temp
2018-Jul-19 04:11N 36°58' W 076°20'1 0.3
2018-Jul-19 01:29N 36°57' W 076°21'4 8.9
2018-Jul-19 01:01N 36°53' W 076°20'4 7.8
2018-Jul-19 00:30N 36°50' W 076°18'2 3.1
2018-Jul-18 23:59N 36°48' W 076°17'0 0.0
2018-Jul-18 23:29N 36°48' W 076°17'0 0.0
2018-Jul-18 22:59N 36°48' W 076°17'0 0.0
2018-Jul-18 22:29N 36°48' W 076°17'0 0.0
2018-Jul-18 21:59N 36°48' W 076°17'0 0.0
2018-Jul-18 21:29N 36°48' W 076°17'0 0.0
2018-Jul-18 20:59N 36°48' W 076°17'0 0.0
2018-Jul-18 20:29N 36°48' W 076°17'0 0.0
2018-Jul-18 19:59N 36°48' W 076°17'0 0.0
2018-Jul-18 19:29N 36°48' W 076°17'0 0.0
2018-Jul-18 18:59N 36°48' W 076°17'0 0.0
2018-Jul-18 18:29N 36°48' W 076°17'0 0.0
2018-Jul-18 17:59N 36°48' W 076°17'0 0.0
2018-Jul-18 17:29N 36°48' W 076°17'0 0.0
2018-Jul-18 16:59N 36°48' W 076°17'0 0.0
2018-Jul-18 16:29N 36°48' W 076°17'0 0.0
2018-Jul-18 15:59N 36°48' W 076°17'0 0.0
2018-Jul-18 15:29N 36°48' W 076°17'0 0.0
2018-Jul-18 14:59N 36°48' W 076°17'0 0.0
2018-Jul-18 14:29N 36°48' W 076°17'0 0.0
2018-Jul-18 13:29N 36°48' W 076°17'0 0.0
2018-Jul-18 12:59N 36°48' W 076°17'0 0.0
2018-Jul-18 12:29N 36°48' W 076°17'0 0.0
2018-Jul-18 11:59N 36°48' W 076°17'0 0.0
2018-Jul-18 11:29N 36°48' W 076°17'1 0.9
2018-Jul-18 10:30N 36°49' W 076°17'3 5.3
2018-Jul-18 10:00N 36°51' W 076°19'5 9.8
2018-Jul-18 09:30N 36°56' W 076°20'1 0.8
2018-Jul-18 08:11N 36°57' W 076°21'0 0.0
2018-Jul-18 07:53N 36°57' W 076°21'0 0.0
2018-Jul-18 07:29N 36°57' W 076°21'0 0.0
2018-Jul-18 06:59N 36°57' W 076°21'1 1.6
2018-Jul-18 06:28N 36°58' W 076°21'  
Track history (hours):
 
Tides and Currents Weather Stations Pressure Air Temp Water Temp Dewpoint Dewpoint Depression Visibility Wind Speed Wind Dir Waves Ship Positions

Balsa 88

Last reported at 2018-Jul-19 04:11 UTC. Time now 2018-Aug-14 07:01 UTC.
Position N 36°58' W 076°20'.
Warning: this ship's position is 26 days out of date.

Length 106 m; draft 7.1 m.

Type: Ship. MMSI: 373279000.

Date/timePositionNaut miles runAvg speedWind from/ knotsBaromVisibWave heightAir tempDewpointWater temp
2018-Jul-19 04:11N 36°58' W 076°20'1 0.3
2018-Jul-19 01:29N 36°57' W 076°21'4 8.9
2018-Jul-19 01:01N 36°53' W 076°20'4 7.8
2018-Jul-19 00:30N 36°50' W 076°18'2 3.1
2018-Jul-18 23:59N 36°48' W 076°17'0 0.0
2018-Jul-18 23:29N 36°48' W 076°17'0 0.0
2018-Jul-18 22:59N 36°48' W 076°17'0 0.0
2018-Jul-18 22:29N 36°48' W 076°17'0 0.0
2018-Jul-18 21:59N 36°48' W 076°17'0 0.0
2018-Jul-18 21:29N 36°48' W 076°17'0 0.0
2018-Jul-18 20:59N 36°48' W 076°17'0 0.0
2018-Jul-18 20:29N 36°48' W 076°17'0 0.0
2018-Jul-18 19:59N 36°48' W 076°17'0 0.0
2018-Jul-18 19:29N 36°48' W 076°17'0 0.0
2018-Jul-18 18:59N 36°48' W 076°17'0 0.0
2018-Jul-18 18:29N 36°48' W 076°17'0 0.0
2018-Jul-18 17:59N 36°48' W 076°17'0 0.0
2018-Jul-18 17:29N 36°48' W 076°17'0 0.0
2018-Jul-18 16:59N 36°48' W 076°17'0 0.0
2018-Jul-18 16:29N 36°48' W 076°17'0 0.0
2018-Jul-18 15:59N 36°48' W 076°17'0 0.0
2018-Jul-18 15:29N 36°48' W 076°17'0 0.0
2018-Jul-18 14:59N 36°48' W 076°17'0 0.0
2018-Jul-18 14:29N 36°48' W 076°17'0 0.0
2018-Jul-18 13:29N 36°48' W 076°17'0 0.0
2018-Jul-18 12:59N 36°48' W 076°17'0 0.0
2018-Jul-18 12:29N 36°48' W 076°17'0 0.0
2018-Jul-18 11:59N 36°48' W 076°17'0 0.0
2018-Jul-18 11:29N 36°48' W 076°17'1 0.9
2018-Jul-18 10:30N 36°49' W 076°17'3 5.3
2018-Jul-18 10:00N 36°51' W 076°19'5 9.8
2018-Jul-18 09:30N 36°56' W 076°20'1 0.8
2018-Jul-18 08:11N 36°57' W 076°21'0 0.0
2018-Jul-18 07:53N 36°57' W 076°21'0 0.0
2018-Jul-18 07:29N 36°57' W 076°21'0 0.0
2018-Jul-18 06:59N 36°57' W 076°21'1 1.6
2018-Jul-18 06:28N 36°58' W 076°21'  

Dump ship's entire track history